Date,TemperatureHighF,TemperatureAvgF,TemperatureLowF,DewpointHighF,DewpointAvgF,DewpointLowF,HumidityHigh,HumidityAvg,HumidityLow,PressureMaxIn,PressureMinIn,WindSpeedMaxMPH,WindSpeedAvgMPH,GustSpeedMaxMPH,PrecipitationSumIn
2013-10-1,82,68,58,70,64,57,99,86,63,30.02,29.93,6,1,10,0.00
2013-10-2,76,70,65,70,67,65,99,92,80,30.04,29.96,5,1,8,0.00
2013-10-3,84,72,65,72,68,63,100,89,65,30.01,29.90,2,0,11,0.00
2013-10-4,83,70,62,73,67,62,100,90,71,30.02,29.94,4,0,7,0.00
2013-10-5,86,74,65,74,68,64,99,84,59,29.98,29.83,6,0,12,0.00
2013-10-6,76,64,54,73,63,53,100,95,82,29.82,29.68,9,1,20,0.25
2013-10-7,64,54,44,54,49,44,100,85,59,30.03,29.82,6,1,13,1.10
2013-10-8,70,54,42,57,48,42,100,83,53,30.10,30.02,0,0,0,0.88
2013-10-9,78,60,47,63,55,47,100,87,57,30.11,30.02,0,0,1,0.13
2013-10-10,76,61,50,63,56,49,100,85,55,30.07,29.96,4,0,8,0.00
2013-10-11,78,59,44,59,52,44,100,81,44,30.01,29.92,2,0,8,0.00
2013-10-12,80,60,46,63,55,46,100,84,49,30.04,29.94,4,0,6,0.00
2013-10-13,79,64,54,64,59,53,100,85,57,30.15,30.03,3,0,6,0.00
2013-10-14,70,60,52,64,59,52,100,94,78,30.15,30.03,2,0,3,0.00
2013-10-15,74,64,55,65,61,55,100,89,70,30.04,29.89,7,1,13,0.00
2013-10-16,65,62,59,65,61,59,100,96,89,29.91,29.83,6,1,8,0.05
2013-10-17,60,55,46,59,53,45,100,94,76,29.93,29.78,7,2,9,0.11
2013-10-18,66,50,40,54,46,39,100,88,53,30.01,29.89,4,0,6,0.07
2013-10-19,55,47,37,51,46,36,100,95,84,29.99,29.81,8,1,12,0.07
2013-10-20,65,45,32,48,39,32,100,83,42,30.05,29.96,5,0,5,0.04
2013-10-21,69,50,36,50,43,36,100,80,39,30.02,29.89,8,1,10,0.01
2013-10-22,58,50,43,50,46,42,99,89,66,29.97,29.79,4,1,8,0.06
2013-10-23,49,44,33,47,38,32,99,83,60,30.04,29.74,8,3,16,0.04
2013-10-24,50,41,29,39,36,28,99,83,61,30.27,30.04,9,2,13,0.02
2013-10-25,49,34,24,33,28,23,98,81,47,30.43,30.27,5,1,9,0.05
2013-10-26,56,41,25,40,31,24,99,73,44,30.29,30.00,8,2,13,0.00
2013-10-27,65,53,39,53,47,38,99,82,65,30.05,29.97,5,1,9,0.00
2013-10-28,59,56,51,57,55,51,99,96,93,30.17,30.00,5,1,8,0.01
2013-10-29,69,59,51,60,56,51,100,90,66,30.23,30.08,3,0,6,0.01
2013-10-30,78,66,60,64,59,55,96,79,54,30.11,29.97,9,2,15,0.03
2013-10-31,69,64,60,65,60,56,97,87,73,29.97,29.45,18,2,28,0.38